Weather at Elorza Airport

Public forecast

Using degrees Celsius for public forecast. Weather courtesy of forecast.io.

Closest aviation weather report (METAR) to Elorza Airport

Report is more than 6 hours old.

Closest report is Santiago Perez Airport, 71.7 nm (132.8 km) W. Retrieved 2020/09/30 19:00 UTC (22 days ago):

SKUC 301900Z 10004KT 9999 FEW030 32/24 2982

Closest aviation forecast (TAF) to Elorza Airport

Closest forecast is San Antonio Del Tachira Airport, 178.9 nm (331.3 km) WNW. Retrieved 2020/10/22 06:03 UTC (2 hours ago):

TAF TAF SVSA 220400Z 2206/2306 11006KT 9999 SCT020 TX33/2219Z TN21/2208Z TEMPO 2206/2210 05005KT 9000 DZ BKN020